sensor_id;sensor_type;location;lat;lon;timestamp;pressure;altitude;pressure_sealevel;temperature;humidity
46534;BME280;32260;52.008;4.752;2023-05-10T00:00:43;100908.44;;;14.78;74.30
46534;BME280;32260;52.008;4.752;2023-05-10T00:03:09;100915.53;;;14.78;74.10
46534;BME280;32260;52.008;4.752;2023-05-10T00:05:36;100912.00;;;14.77;74.15
46534;BME280;32260;52.008;4.752;2023-05-10T00:08:02;100914.69;;;14.77;74.19
46534;BME280;32260;52.008;4.752;2023-05-10T00:10:28;100913.75;;;14.78;74.33
46534;BME280;32260;52.008;4.752;2023-05-10T00:12:54;100910.19;;;14.78;74.24
46534;BME280;32260;52.008;4.752;2023-05-10T00:15:20;100916.44;;;14.78;74.56
46534;BME280;32260;52.008;4.752;2023-05-10T00:17:46;100912.84;;;14.79;74.21
46534;BME280;32260;52.008;4.752;2023-05-10T00:20:12;100909.13;;;14.83;74.45
46534;BME280;32260;52.008;4.752;2023-05-10T00:22:38;100912.63;;;14.85;74.79
46534;BME280;32260;52.008;4.752;2023-05-10T00:25:05;100911.66;;;14.86;74.59
46534;BME280;32260;52.008;4.752;2023-05-10T00:27:32;100912.63;;;14.85;74.56
46534;BME280;32260;52.008;4.752;2023-05-10T00:29:58;100914.78;;;14.74;74.79
46534;BME280;32260;52.008;4.752;2023-05-10T00:32:24;100913.16;;;14.70;75.27
46534;BME280;32260;52.008;4.752;2023-05-10T00:34:50;100914.91;;;14.71;75.26
46534;BME280;32260;52.008;4.752;2023-05-10T00:37:16;100913.16;;;14.70;75.39
46534;BME280;32260;52.008;4.752;2023-05-10T00:39:42;100915.81;;;14.70;75.52
46534;BME280;32260;52.008;4.752;2023-05-10T00:42:08;100915.75;;;14.71;75.62
46534;BME280;32260;52.008;4.752;2023-05-10T00:44:34;100916.66;;;14.72;75.48
46534;BME280;32260;52.008;4.752;2023-05-10T00:47:01;100914.06;;;14.69;75.51
46534;BME280;32260;52.008;4.752;2023-05-10T00:49:28;100915.03;;;14.68;75.44
46534;BME280;32260;52.008;4.752;2023-05-10T00:51:55;100913.28;;;14.67;75.40
46534;BME280;32260;52.008;4.752;2023-05-10T00:54:21;100909.78;;;14.65;75.51
46534;BME280;32260;52.008;4.752;2023-05-10T00:56:47;100915.16;;;14.63;75.53
46534;BME280;32260;52.008;4.752;2023-05-10T00:59:16;100915.22;;;14.62;75.51
46534;BME280;32260;52.008;4.752;2023-05-10T01:01:44;100915.22;;;14.62;75.40
46534;BME280;32260;52.008;4.752;2023-05-10T01:04:13;100902.81;;;14.61;75.45
46534;BME280;32260;52.008;4.752;2023-05-10T01:06:40;100913.47;;;14.61;75.49
46534;BME280;32260;52.008;4.752;2023-05-10T01:09:07;100913.47;;;14.61;75.66
46534;BME280;32260;52.008;4.752;2023-05-10T01:11:36;100906.31;;;14.61;75.60
46534;BME280;32260;52.008;4.752;2023-05-10T01:14:03;100908.13;;;14.61;75.77
46534;BME280;32260;52.008;4.752;2023-05-10T01:16:34;100916.06;;;14.62;75.79
46534;BME280;32260;52.008;4.752;2023-05-10T01:19:03;100911.59;;;14.63;75.63
46534;BME280;32260;52.008;4.752;2023-05-10T01:21:56;100923.72;;;14.73;75.68
46534;BME280;32260;52.008;4.752;2023-05-10T01:27:25;100915.81;;;14.70;75.49
46534;BME280;32260;52.008;4.752;2023-05-10T01:30:09;100921.97;;;14.72;75.54
46534;BME280;32260;52.008;4.752;2023-05-10T01:35:51;100936.13;;;14.74;75.28
46534;BME280;32260;52.008;4.752;2023-05-10T01:44:02;100942.81;;;14.61;75.65
46534;BME280;32260;52.008;4.752;2023-05-10T01:46:37;100939.22;;;14.62;75.79
46534;BME280;32260;52.008;4.752;2023-05-10T01:49:08;100945.47;;;14.61;75.88
46534;BME280;32260;52.008;4.752;2023-05-10T01:51:41;100949.00;;;14.61;75.92
46534;BME280;32260;52.008;4.752;2023-05-10T01:54:09;100946.38;;;14.60;75.80
46534;BME280;32260;52.008;4.752;2023-05-10T01:56:38;100950.81;;;14.61;75.74
46534;BME280;32260;52.008;4.752;2023-05-10T01:59:09;100950.81;;;14.61;75.89
46534;BME280;32260;52.008;4.752;2023-05-10T02:01:37;100952.63;;;14.59;75.93
46534;BME280;32260;52.008;4.752;2023-05-10T02:04:07;100954.31;;;14.61;76.06
46534;BME280;32260;52.008;4.752;2023-05-10T02:06:35;100951.66;;;14.61;76.06
46534;BME280;32260;52.008;4.752;2023-05-10T02:09:04;100950.81;;;14.61;75.94
46534;BME280;32260;52.008;4.752;2023-05-10T02:11:31;100947.22;;;14.62;76.17
46534;BME280;32260;52.008;4.752;2023-05-10T02:13:59;100963.13;;;14.65;75.96
46534;BME280;32260;52.008;4.752;2023-05-10T02:16:27;100955.94;;;14.67;76.15
46534;BME280;32260;52.008;4.752;2023-05-10T02:18:57;100961.28;;;14.67;76.12
46534;BME280;32260;52.008;4.752;2023-05-10T02:21:25;100963.03;;;14.68;76.13
46534;BME280;32260;52.008;4.752;2023-05-10T02:23:52;100971.94;;;14.67;76.23
46534;BME280;32260;52.008;4.752;2023-05-10T02:26:21;100970.91;;;14.71;76.03
46534;BME280;32260;52.008;4.752;2023-05-10T02:28:49;100968.38;;;14.68;76.17
46534;BME280;32260;52.008;4.752;2023-05-10T02:31:17;100970.91;;;14.71;76.05
46534;BME280;32260;52.008;4.752;2023-05-10T02:33:45;100971.81;;;14.70;76.13
46534;BME280;32260;52.008;4.752;2023-05-10T02:36:13;100967.97;;;14.79;75.90
46534;BME280;32260;52.008;4.752;2023-05-10T02:38:40;100974.75;;;14.87;75.76
46534;BME280;32260;52.008;4.752;2023-05-10T02:41:08;100966.66;;;14.91;75.69
46534;BME280;32260;52.008;4.752;2023-05-10T02:43:36;100968.41;;;14.92;75.42
46534;BME280;32260;52.008;4.752;2023-05-10T02:46:03;100969.16;;;14.95;75.68
46534;BME280;32260;52.008;4.752;2023-05-10T02:48:30;100969.91;;;14.99;75.61
46534;BME280;32260;52.008;4.752;2023-05-10T02:51:00;100971.56;;;15.03;75.56
46534;BME280;32260;52.008;4.752;2023-05-10T02:53:33;100972.25;;;15.08;75.69
46534;BME280;32260;52.008;4.752;2023-05-10T02:56:04;100969.53;;;15.10;75.51
46534;BME280;32260;52.008;4.752;2023-05-10T02:58:32;100972.13;;;15.11;75.55
46534;BME280;32260;52.008;4.752;2023-05-10T03:01:00;100972.94;;;15.13;75.47
46534;BME280;32260;52.008;4.752;2023-05-10T03:03:26;100972.13;;;15.11;75.18
46534;BME280;32260;52.008;4.752;2023-05-10T03:05:52;100976.00;;;15.02;75.48
46534;BME280;32260;52.008;4.752;2023-05-10T03:08:22;100969.53;;;15.10;75.22
46534;BME280;32260;52.008;4.752;2023-05-10T03:11:08;100977.38;;;15.14;75.36
46534;BME280;32260;52.008;4.752;2023-05-10T03:16:40;100968.00;;;15.02;76.34
46534;BME280;32260;52.008;4.752;2023-05-10T03:19:18;100971.50;;;15.04;76.17
46534;BME280;32260;52.008;4.752;2023-05-10T03:21:50;100960.81;;;15.04;75.94
46534;BME280;32260;52.008;4.752;2023-05-10T03:24:20;100964.34;;;15.05;76.14
46534;BME280;32260;52.008;4.752;2023-05-10T03:26:48;100972.34;;;15.05;76.08
46534;BME280;32260;52.008;4.752;2023-05-10T03:29:15;100976.78;;;15.06;75.98
46534;BME280;32260;52.008;4.752;2023-05-10T03:31:41;100984.00;;;15.02;75.99
46534;BME280;32260;52.008;4.752;2023-05-10T03:34:08;100976.00;;;15.02;75.90
46534;BME280;32260;52.008;4.752;2023-05-10T03:36:34;100976.94;;;15.01;75.83
46534;BME280;32260;52.008;4.752;2023-05-10T03:39:00;100970.72;;;15.01;75.95
46534;BME280;32260;52.008;4.752;2023-05-10T03:41:26;100968.13;;;14.99;76.03
46534;BME280;32260;52.008;4.752;2023-05-10T03:43:52;100976.06;;;15.01;76.05
46534;BME280;32260;52.008;4.752;2023-05-10T03:46:18;100979.59;;;15.01;76.05
46534;BME280;32260;52.008;4.752;2023-05-10T03:48:44;100982.22;;;15.03;76.20
46534;BME280;32260;52.008;4.752;2023-05-10T03:51:10;100981.34;;;15.02;76.13
46534;BME280;32260;52.008;4.752;2023-05-10T03:53:36;100981.41;;;15.01;76.16
46534;BME280;32260;52.008;4.752;2023-05-10T03:56:02;100983.22;;;15.00;75.77
46534;BME280;32260;52.008;4.752;2023-05-10T03:58:29;100989.41;;;15.01;76.11
46534;BME280;32260;52.008;4.752;2023-05-10T04:00:55;100984.19;;;14.98;75.98
46534;BME280;32260;52.008;4.752;2023-05-10T04:03:21;100994.81;;;14.99;76.05
46534;BME280;32260;52.008;4.752;2023-05-10T04:05:47;100991.25;;;14.99;76.11
46534;BME280;32260;52.008;4.752;2023-05-10T04:08:13;100995.66;;;15.00;75.82
46534;BME280;32260;52.008;4.752;2023-05-10T04:10:40;100993.06;;;14.98;75.86
46534;BME280;32260;52.008;4.752;2023-05-10T04:13:06;100997.53;;;14.98;75.99
46534;BME280;32260;52.008;4.752;2023-05-10T04:15:32;100994.97;;;14.95;75.97
46534;BME280;32260;52.008;4.752;2023-05-10T04:17:58;100989.56;;;14.96;75.81
46534;BME280;32260;52.008;4.752;2023-05-10T04:20:25;100981.63;;;14.95;76.11
46534;BME280;32260;52.008;4.752;2023-05-10T04:22:51;100984.28;;;14.95;75.97
46534;BME280;32260;52.008;4.752;2023-05-10T04:25:17;100981.53;;;14.98;75.87
46534;BME280;32260;52.008;4.752;2023-05-10T04:27:43;100988.28;;;15.08;75.49
46534;BME280;32260;52.008;4.752;2023-05-10T04:30:09;100997.06;;;15.10;75.27
46534;BME280;32260;52.008;4.752;2023-05-10T04:32:36;100988.13;;;15.11;75.32
46534;BME280;32260;52.008;4.752;2023-05-10T04:35:02;100991.72;;;15.10;75.09
46534;BME280;32260;52.008;4.752;2023-05-10T04:37:30;101004.28;;;15.08;75.11
46534;BME280;32260;52.008;4.752;2023-05-10T04:39:56;101007.88;;;15.07;75.26
46534;BME280;32260;52.008;4.752;2023-05-10T04:42:22;101013.28;;;15.04;75.08
46534;BME280;32260;52.008;4.752;2023-05-10T04:44:48;101007.97;;;15.04;75.16
46534;BME280;32260;52.008;4.752;2023-05-10T04:47:14;101004.50;;;15.02;75.17
46534;BME280;32260;52.008;4.752;2023-05-10T04:49:42;101016.09;;;15.01;75.18
46534;BME280;32260;52.008;4.752;2023-05-10T04:52:08;101012.59;;;14.99;74.98
46534;BME280;32260;52.008;4.752;2023-05-10T04:54:34;101018.88;;;14.98;75.15
46534;BME280;32260;52.008;4.752;2023-05-10T04:57:00;101021.50;;;14.99;75.09
46534;BME280;32260;52.008;4.752;2023-05-10T04:59:26;101022.34;;;15.00;75.19
46534;BME280;32260;52.008;4.752;2023-05-10T05:01:52;101024.97;;;15.01;75.05
46534;BME280;32260;52.008;4.752;2023-05-10T05:04:18;101031.97;;;15.04;75.10
46534;BME280;32260;52.008;4.752;2023-05-10T05:06:44;101032.94;;;15.03;75.34
46534;BME280;32260;52.008;4.752;2023-05-10T05:09:11;101032.94;;;15.03;75.14
46534;BME280;32260;52.008;4.752;2023-05-10T05:11:37;101038.34;;;15.00;75.05
46534;BME280;32260;52.008;4.752;2023-05-10T05:14:03;101030.41;;;14.98;74.85
46534;BME280;32260;52.008;4.752;2023-05-10T05:16:30;101036.81;;;14.93;74.99
46534;BME280;32260;52.008;4.752;2023-05-10T05:18:57;101048.47;;;14.90;75.00
46534;BME280;32260;52.008;4.752;2023-05-10T05:21:23;101045.88;;;14.88;75.00
46534;BME280;32260;52.008;4.752;2023-05-10T05:23:50;101047.63;;;14.90;75.16
46534;BME280;32260;52.008;4.752;2023-05-10T05:26:16;101053.03;;;14.86;75.06
46534;BME280;32260;52.008;4.752;2023-05-10T05:28:43;101056.47;;;14.92;75.20
46534;BME280;32260;52.008;4.752;2023-05-10T05:31:09;101063.50;;;14.93;75.24
46534;BME280;32260;52.008;4.752;2023-05-10T05:33:35;101061.50;;;14.99;75.22
46534;BME280;32260;52.008;4.752;2023-05-10T05:36:03;101067.91;;;14.94;75.59
46534;BME280;32260;52.008;4.752;2023-05-10T05:38:30;101064.28;;;14.96;75.76
46534;BME280;32260;52.008;4.752;2023-05-10T05:40:56;101071.34;;;14.97;75.61
46534;BME280;32260;52.008;4.752;2023-05-10T05:43:22;101067.00;;;14.95;75.50
46534;BME280;32260;52.008;4.752;2023-05-10T05:45:48;101071.69;;;14.88;75.42
46534;BME280;32260;52.008;4.752;2023-05-10T05:48:14;101079.63;;;14.90;75.53
46534;BME280;32260;52.008;4.752;2023-05-10T05:50:40;101075.28;;;14.87;75.76
46534;BME280;32260;52.008;4.752;2023-05-10T05:53:07;101073.47;;;14.87;75.47
46534;BME280;32260;52.008;4.752;2023-05-10T05:55:34;101075.28;;;14.87;75.78
46534;BME280;32260;52.008;4.752;2023-05-10T05:58:00;101084.06;;;14.89;75.55
46534;BME280;32260;52.008;4.752;2023-05-10T06:00:26;101077.59;;;14.98;75.12
46534;BME280;32260;52.008;4.752;2023-05-10T06:02:52;101081.06;;;15.00;75.02
46534;BME280;32260;52.008;4.752;2023-05-10T06:05:18;101083.66;;;15.01;74.98
46534;BME280;32260;52.008;4.752;2023-05-10T06:07:46;101081.81;;;15.03;75.05
46534;BME280;32260;52.008;4.752;2023-05-10T06:10:12;101089.81;;;15.03;74.95
46534;BME280;32260;52.008;4.752;2023-05-10T06:12:38;101090.66;;;15.06;75.07
46534;BME280;32260;52.008;4.752;2023-05-10T06:15:05;101091.63;;;15.03;74.84
46534;BME280;32260;52.008;4.752;2023-05-10T06:17:31;101091.44;;;15.09;74.74
46534;BME280;32260;52.008;4.752;2023-05-10T06:19:57;101092.94;;;15.16;74.92
46534;BME280;32260;52.008;4.752;2023-05-10T06:22:23;101084.53;;;15.27;74.97
46534;BME280;32260;52.008;4.752;2023-05-10T06:24:49;101086.84;;;15.38;74.90
46534;BME280;32260;52.008;4.752;2023-05-10T06:27:16;101082.97;;;15.47;74.81
46534;BME280;32260;52.008;4.752;2023-05-10T06:29:42;101092.66;;;15.49;75.01
46534;BME280;32260;52.008;4.752;2023-05-10T06:32:08;101104.25;;;15.48;74.75
46534;BME280;32260;52.008;4.752;2023-05-10T06:34:34;101098.16;;;15.45;74.36
46534;BME280;32260;52.008;4.752;2023-05-10T06:37:00;101102.56;;;15.46;74.37
46534;BME280;32260;52.008;4.752;2023-05-10T06:39:26;101106.88;;;15.50;74.59
46534;BME280;32260;52.008;4.752;2023-05-10T06:41:52;101102.06;;;15.60;74.71
46534;BME280;32260;52.008;4.752;2023-05-10T06:44:18;101093.66;;;15.71;74.52
46534;BME280;32260;52.008;4.752;2023-05-10T06:46:44;101099.53;;;15.80;74.43
46534;BME280;32260;52.008;4.752;2023-05-10T06:49:10;101101.09;;;15.88;74.58
46534;BME280;32260;52.008;4.752;2023-05-10T06:51:36;101107.13;;;15.93;74.45
46534;BME280;32260;52.008;4.752;2023-05-10T06:54:02;101112.22;;;15.99;74.54
46534;BME280;32260;52.008;4.752;2023-05-10T06:56:29;101112.91;;;16.04;74.05
46534;BME280;32260;52.008;4.752;2023-05-10T06:58:55;101109.19;;;16.08;74.12
46534;BME280;32260;52.008;4.752;2023-05-10T07:01:21;101108.03;;;16.15;73.79
46534;BME280;32260;52.008;4.752;2023-05-10T07:03:47;101102.50;;;16.20;73.90
46534;BME280;32260;52.008;4.752;2023-05-10T07:06:13;101113.72;;;16.30;73.83
46534;BME280;32260;52.008;4.752;2023-05-10T07:08:39;101109.72;;;16.40;73.97
46534;BME280;32260;52.008;4.752;2023-05-10T07:11:07;101110.28;;;16.48;74.05
46534;BME280;32260;52.008;4.752;2023-05-10T07:13:34;101123.28;;;16.58;73.75
46534;BME280;32260;52.008;4.752;2023-05-10T07:16:01;101124.88;;;16.62;73.13
46534;BME280;32260;52.008;4.752;2023-05-10T07:18:28;101123.03;;;16.64;73.46
46534;BME280;32260;52.008;4.752;2023-05-10T07:20:54;101131.00;;;16.65;72.95
46534;BME280;32260;52.008;4.752;2023-05-10T07:23:20;101130.13;;;16.65;72.79
46534;BME280;32260;52.008;4.752;2023-05-10T07:25:48;101126.53;;;16.66;72.50
46534;BME280;32260;52.008;4.752;2023-05-10T07:28:15;101133.59;;;16.67;72.82
46534;BME280;32260;52.008;4.752;2023-05-10T07:30:42;101137.22;;;16.66;72.96
46534;BME280;32260;52.008;4.752;2023-05-10T07:33:09;101134.59;;;16.64;73.36
46534;BME280;32260;52.008;4.752;2023-05-10T07:35:36;101134.72;;;16.61;72.72
46534;BME280;32260;52.008;4.752;2023-05-10T07:38:02;101143.69;;;16.60;72.47
46534;BME280;32260;52.008;4.752;2023-05-10T07:40:29;101144.69;;;16.58;72.80
46534;BME280;32260;52.008;4.752;2023-05-10T07:42:55;101143.06;;;16.54;72.22
46534;BME280;32260;52.008;4.752;2023-05-10T07:45:22;101142.25;;;16.52;72.19
46534;BME280;32260;52.008;4.752;2023-05-10T07:47:49;101143.19;;;16.50;72.32
46534;BME280;32260;52.008;4.752;2023-05-10T07:50:15;101139.69;;;16.48;72.51
46534;BME280;32260;52.008;4.752;2023-05-10T07:52:41;101138.06;;;16.44;72.67
46534;BME280;32260;52.008;4.752;2023-05-10T07:55:08;101135.53;;;16.41;72.80
46534;BME280;32260;52.008;4.752;2023-05-10T07:57:35;101140.88;;;16.41;72.83
46534;BME280;32260;52.008;4.752;2023-05-10T08:00:01;101140.06;;;16.39;72.67
46534;BME280;32260;52.008;4.752;2023-05-10T08:02:27;101141.88;;;16.39;72.56
46534;BME280;32260;52.008;4.752;2023-05-10T08:04:54;101148.09;;;16.39;72.53
46534;BME280;32260;52.008;4.752;2023-05-10T08:07:21;101147.16;;;16.40;72.74
46534;BME280;32260;52.008;4.752;2023-05-10T08:09:47;101143.31;;;16.47;72.39
46534;BME280;32260;52.008;4.752;2023-05-10T08:12:13;101157.69;;;16.45;72.38
46534;BME280;32260;52.008;4.752;2023-05-10T08:14:39;101158.16;;;16.55;72.18
46534;BME280;32260;52.008;4.752;2023-05-10T08:17:06;101161.72;;;16.55;72.49
46534;BME280;32260;52.008;4.752;2023-05-10T08:19:32;101165.25;;;16.56;72.33
46534;BME280;32260;52.008;4.752;2023-05-10T08:21:58;101176.16;;;16.51;71.90
46534;BME280;32260;52.008;4.752;2023-05-10T08:24:24;101168.06;;;16.53;72.60
46534;BME280;32260;52.008;4.752;2023-05-10T08:26:50;101178.63;;;16.56;72.58
46534;BME280;32260;52.008;4.752;2023-05-10T08:29:17;101176.59;;;16.62;72.91
46534;BME280;32260;52.008;4.752;2023-05-10T08:31:43;101185.25;;;16.69;72.49
46534;BME280;32260;52.008;4.752;2023-05-10T08:34:09;101181.41;;;16.76;72.18
46534;BME280;32260;52.008;4.752;2023-05-10T08:36:38;101183.00;;;16.80;72.27
46534;BME280;32260;52.008;4.752;2023-05-10T08:39:04;101181.09;;;16.84;72.30
46534;BME280;32260;52.008;4.752;2023-05-10T08:41:30;101190.84;;;16.85;71.73
46534;BME280;32260;52.008;4.752;2023-05-10T08:43:59;101189.84;;;16.88;72.33
46534;BME280;32260;52.008;4.752;2023-05-10T08:46:29;101188.00;;;16.90;72.09
46534;BME280;32260;52.008;4.752;2023-05-10T08:48:58;101196.75;;;16.95;72.18
46534;BME280;32260;52.008;4.752;2023-05-10T08:51:28;101189.50;;;16.97;71.98
46534;BME280;32260;52.008;4.752;2023-05-10T08:53:58;101192.84;;;17.02;71.82
46534;BME280;32260;52.008;4.752;2023-05-10T08:56:24;101195.28;;;17.08;71.99
46534;BME280;32260;52.008;4.752;2023-05-10T08:58:51;101192.47;;;17.11;72.04
46534;BME280;32260;52.008;4.752;2023-05-10T09:01:17;101203.94;;;17.15;71.85
46534;BME280;32260;52.008;4.752;2023-05-10T09:03:45;101206.53;;;17.17;71.56
46534;BME280;32260;52.008;4.752;2023-05-10T09:06:13;101204.78;;;17.16;70.94
46534;BME280;32260;52.008;4.752;2023-05-10T09:08:42;101215.50;;;17.16;71.52
46534;BME280;32260;52.008;4.752;2023-05-10T09:11:09;101210.28;;;17.12;70.84
46534;BME280;32260;52.008;4.752;2023-05-10T09:13:36;101207.81;;;17.08;70.88
46534;BME280;32260;52.008;4.752;2023-05-10T09:16:03;101214.97;;;17.07;71.30
46534;BME280;32260;52.008;4.752;2023-05-10T09:18:30;101216.84;;;17.05;71.70
46534;BME280;32260;52.008;4.752;2023-05-10T09:20:56;101216.09;;;17.02;71.10
46534;BME280;32260;52.008;4.752;2023-05-10T09:23:22;101221.44;;;17.02;71.32
46534;BME280;32260;52.008;4.752;2023-05-10T09:26:02;101223.94;;;17.06;71.14
46534;BME280;32260;52.008;4.752;2023-05-10T09:28:34;101225.88;;;17.03;71.45
46534;BME280;32260;52.008;4.752;2023-05-10T09:31:15;101225.94;;;17.01;71.84
46534;BME280;32260;52.008;4.752;2023-05-10T09:33:49;101227.53;;;17.05;71.65
46534;BME280;32260;52.008;4.752;2023-05-10T09:36:16;101224.97;;;17.02;71.61
46534;BME280;32260;52.008;4.752;2023-05-10T09:38:51;101226.34;;;17.12;71.18
46534;BME280;32260;52.008;4.752;2023-05-10T09:41:21;101227.84;;;17.20;71.27
46534;BME280;32260;52.008;4.752;2023-05-10T09:43:47;101229.06;;;17.33;71.23
46534;BME280;32260;52.008;4.752;2023-05-10T09:46:14;101228.44;;;17.49;71.47
46534;BME280;32260;52.008;4.752;2023-05-10T09:48:46;101231.25;;;17.66;70.88
46534;BME280;32260;52.008;4.752;2023-05-10T09:51:20;101231.38;;;17.84;70.84
46534;BME280;32260;52.008;4.752;2023-05-10T09:53:46;101229.09;;;17.95;70.53
46534;BME280;32260;52.008;4.752;2023-05-10T09:56:12;101222.38;;;18.05;70.44
46534;BME280;32260;52.008;4.752;2023-05-10T09:58:38;101239.09;;;18.12;71.07
46534;BME280;32260;52.008;4.752;2023-05-10T10:01:04;101233.72;;;18.12;70.23
46534;BME280;32260;52.008;4.752;2023-05-10T10:03:42;101241.69;;;18.14;70.09
46534;BME280;32260;52.008;4.752;2023-05-10T10:06:09;101236.44;;;18.10;70.01
46534;BME280;32260;52.008;4.752;2023-05-10T10:08:35;101245.47;;;18.09;70.14
46534;BME280;32260;52.008;4.752;2023-05-10T10:11:01;101238.47;;;18.05;69.43
46534;BME280;32260;52.008;4.752;2023-05-10T10:13:28;101238.44;;;18.07;69.15
46534;BME280;32260;52.008;4.752;2023-05-10T10:15:54;101241.81;;;18.10;69.04
46534;BME280;32260;52.008;4.752;2023-05-10T10:18:21;101243.28;;;18.18;69.79
46534;BME280;32260;52.008;4.752;2023-05-10T10:20:53;101245.75;;;18.22;70.00
46534;BME280;32260;52.008;4.752;2023-05-10T10:23:20;101250.25;;;18.22;69.61
46534;BME280;32260;52.008;4.752;2023-05-10T10:25:47;101248.38;;;18.24;68.77
46534;BME280;32260;52.008;4.752;2023-05-10T10:28:22;101244.53;;;18.30;69.10
46534;BME280;32260;52.008;4.752;2023-05-10T10:30:51;101248.38;;;18.24;69.11
46534;BME280;32260;52.008;4.752;2023-05-10T10:34:03;101244.91;;;18.22;68.52
46534;BME280;32260;52.008;4.752;2023-05-10T10:36:16;101251.09;;;18.03;68.66
46534;BME280;32260;52.008;4.752;2023-05-10T10:38:59;101254.09;;;17.95;68.97
46534;BME280;32260;52.008;4.752;2023-05-10T10:41:33;101249.31;;;17.82;68.96
46534;BME280;32260;52.008;4.752;2023-05-10T10:47:23;101260.13;;;17.80;69.38
46534;BME280;32260;52.008;4.752;2023-05-10T10:52:39;101256.44;;;17.83;69.44
46534;BME280;32260;52.008;4.752;2023-05-10T10:55:13;101255.66;;;18.01;69.13
46534;BME280;32260;52.008;4.752;2023-05-10T11:05:39;101249.56;;;18.37;69.60
46534;BME280;32260;52.008;4.752;2023-05-10T11:08:18;101243.31;;;18.56;69.06
46534;BME280;32260;52.008;4.752;2023-05-10T11:16:23;101244.47;;;18.50;68.37
46534;BME280;32260;52.008;4.752;2023-05-10T11:19:07;101265.66;;;18.37;67.60
46534;BME280;32260;52.008;4.752;2023-05-10T11:21:49;101262.22;;;18.15;67.23
46534;BME280;32260;52.008;4.752;2023-05-10T11:24:22;101266.81;;;17.90;67.44
46534;BME280;32260;52.008;4.752;2023-05-10T11:26:53;101275.59;;;17.73;68.20
46534;BME280;32260;52.008;4.752;2023-05-10T11:29:20;101274.38;;;17.60;68.24
46534;BME280;32260;52.008;4.752;2023-05-10T11:31:47;101272.28;;;17.46;68.66
46534;BME280;32260;52.008;4.752;2023-05-10T11:34:30;101273.41;;;17.40;68.48
46534;BME280;32260;52.008;4.752;2023-05-10T11:37:00;101270.56;;;17.23;68.89
46534;BME280;32260;52.008;4.752;2023-05-10T11:39:29;101274.56;;;17.12;69.12
46534;BME280;32260;52.008;4.752;2023-05-10T11:41:56;101281.84;;;17.09;69.50
46534;BME280;32260;52.008;4.752;2023-05-10T11:44:23;101277.59;;;17.03;69.35
46534;BME280;32260;52.008;4.752;2023-05-10T11:46:50;101272.38;;;17.00;69.72
46534;BME280;32260;52.008;4.752;2023-05-10T11:49:18;101279.50;;;17.00;69.72
46534;BME280;32260;52.008;4.752;2023-05-10T11:51:44;101275.28;;;16.94;69.72
46534;BME280;32260;52.008;4.752;2023-05-10T11:54:11;101282.25;;;16.98;69.61
46534;BME280;32260;52.008;4.752;2023-05-10T11:56:38;101286.75;;;16.97;69.58
46534;BME280;32260;52.008;4.752;2023-05-10T11:59:05;101294.78;;;16.97;69.54
46534;BME280;32260;52.008;4.752;2023-05-10T12:01:31;101289.44;;;16.97;69.09
46534;BME280;32260;52.008;4.752;2023-05-10T12:03:58;101291.09;;;17.00;69.14
46534;BME280;32260;52.008;4.752;2023-05-10T12:06:28;101291.72;;;17.07;69.38
46534;BME280;32260;52.008;4.752;2023-05-10T12:08:55;101294.22;;;17.11;68.82
46534;BME280;32260;52.008;4.752;2023-05-10T12:11:25;101295.72;;;17.19;69.04
46534;BME280;32260;52.008;4.752;2023-05-10T12:13:52;101300.00;;;17.23;69.21
46534;BME280;32260;52.008;4.752;2023-05-10T12:16:20;101296.25;;;17.27;69.00
46534;BME280;32260;52.008;4.752;2023-05-10T12:18:52;101296.00;;;17.33;69.03
46534;BME280;32260;52.008;4.752;2023-05-10T12:21:19;101299.50;;;17.35;68.76
46534;BME280;32260;52.008;4.752;2023-05-10T12:23:48;101293.91;;;17.41;68.75
46534;BME280;32260;52.008;4.752;2023-05-10T12:26:14;101300.75;;;17.49;68.75
46534;BME280;32260;52.008;4.752;2023-05-10T12:28:40;101299.41;;;17.59;68.79
46534;BME280;32260;52.008;4.752;2023-05-10T12:31:07;101300.84;;;17.68;68.45
46534;BME280;32260;52.008;4.752;2023-05-10T12:33:42;101303.75;;;17.84;67.92
46534;BME280;32260;52.008;4.752;2023-05-10T12:36:13;101298.84;;;17.93;67.64
46534;BME280;32260;52.008;4.752;2023-05-10T12:38:41;101306.44;;;18.04;68.01
46534;BME280;32260;52.008;4.752;2023-05-10T12:41:10;101309.06;;;18.06;67.02
46534;BME280;32260;52.008;4.752;2023-05-10T12:43:37;101310.81;;;18.07;66.46
46534;BME280;32260;52.008;4.752;2023-05-10T12:48:43;101313.97;;;17.96;66.76
46534;BME280;32260;52.008;4.752;2023-05-10T12:51:10;101308.03;;;17.88;66.86
46534;BME280;32260;52.008;4.752;2023-05-10T12:53:41;101317.13;;;17.84;66.23
46534;BME280;32260;52.008;4.752;2023-05-10T12:56:08;101314.47;;;17.84;66.57
46534;BME280;32260;52.008;4.752;2023-05-10T12:58:34;101313.19;;;17.92;66.83
46534;BME280;32260;52.008;4.752;2023-05-10T13:01:01;101322.53;;;18.04;66.18
46534;BME280;32260;52.008;4.752;2023-05-10T13:03:27;101318.38;;;18.18;66.37
46534;BME280;32260;52.008;4.752;2023-05-10T13:05:53;101304.56;;;18.27;66.32
46534;BME280;32260;52.008;4.752;2023-05-10T13:08:22;101315.69;;;18.38;65.55
46534;BME280;32260;52.008;4.752;2023-05-10T13:10:48;101315.41;;;18.45;65.88
46534;BME280;32260;52.008;4.752;2023-05-10T13:13:17;101318.47;;;18.56;64.95
46534;BME280;32260;52.008;4.752;2023-05-10T13:15:44;101316.88;;;18.52;64.29
46534;BME280;32260;52.008;4.752;2023-05-10T13:18:10;101325.53;;;18.38;62.86
46534;BME280;32260;52.008;4.752;2023-05-10T13:20:36;101329.28;;;18.34;64.17
46534;BME280;32260;52.008;4.752;2023-05-10T13:23:02;101328.09;;;18.20;63.05
46534;BME280;32260;52.008;4.752;2023-05-10T13:25:28;101328.25;;;18.17;64.00
46534;BME280;32260;52.008;4.752;2023-05-10T13:27:57;101330.38;;;18.09;63.80
46534;BME280;32260;52.008;4.752;2023-05-10T13:30:23;101336.22;;;17.98;64.04